createdAt,value
2023-03-16T00:00:09.729Z,5.60
2023-03-16T00:02:36.087Z,5.35
2023-03-16T00:05:02.441Z,5.15
2023-03-16T00:07:29.109Z,5.57
2023-03-16T00:09:55.558Z,5.22
2023-03-16T00:12:22.572Z,5.82
2023-03-16T00:14:49.645Z,5.50
2023-03-16T00:17:21.357Z,5.40
2023-03-16T00:19:54.750Z,5.57
2023-03-16T00:22:24.288Z,6.25
2023-03-16T00:24:50.891Z,4.93
2023-03-16T00:27:17.404Z,5.28
2023-03-16T00:29:46.894Z,5.50
2023-03-16T00:32:17.213Z,6.07
2023-03-16T00:34:45.428Z,5.70
2023-03-16T00:37:15.515Z,5.72
2023-03-16T00:39:43.500Z,5.88
2023-03-16T00:42:11.819Z,5.22
2023-03-16T00:44:38.981Z,5.45
2023-03-16T00:47:06.395Z,5.13
2023-03-16T00:49:34.787Z,5.35
2023-03-16T00:52:06.685Z,5.55
2023-03-16T00:54:33.416Z,5.55
2023-03-16T00:57:00.870Z,5.75
2023-03-16T00:59:28.293Z,6.07
2023-03-16T01:01:55.528Z,5.60
2023-03-16T01:04:23.004Z,6.00
2023-03-16T01:06:49.701Z,5.88
2023-03-16T01:09:16.078Z,5.75
2023-03-16T01:11:45.462Z,6.07
2023-03-16T01:14:11.944Z,5.78
2023-03-16T01:16:39.525Z,5.28
2023-03-16T01:19:06.009Z,5.60
2023-03-16T01:21:33.731Z,5.85
2023-03-16T01:24:00.195Z,6.50
2023-03-16T01:26:26.666Z,6.18
2023-03-16T01:28:54.463Z,5.93
2023-03-16T01:31:20.954Z,5.35
2023-03-16T01:33:47.396Z,6.70
2023-03-16T01:36:16.533Z,5.93
2023-03-16T01:38:43.655Z,6.30
2023-03-16T01:41:11.237Z,6.47
2023-03-16T01:43:39.222Z,6.20
2023-03-16T01:46:05.687Z,6.75
2023-03-16T01:48:52.107Z,6.38
2023-03-16T01:51:37.397Z,6.05
2023-03-16T01:54:09.869Z,6.03
2023-03-16T01:56:43.798Z,6.40
2023-03-16T01:59:16.486Z,5.78
2023-03-16T02:01:43.860Z,5.88
2023-03-16T02:04:23.064Z,6.10
2023-03-16T02:06:50.066Z,6.15
2023-03-16T02:09:19.116Z,5.38
2023-03-16T02:11:47.321Z,6.22
2023-03-16T02:14:14.138Z,6.22
2023-03-16T02:16:41.670Z,6.22
2023-03-16T02:19:14.000Z,5.75
2023-03-16T02:22:06.332Z,5.80
2023-03-16T02:24:32.840Z,5.68
2023-03-16T02:27:04.551Z,6.13
2023-03-16T02:29:59.364Z,5.78
2023-03-16T02:34:55.568Z,5.03
2023-03-16T02:37:22.312Z,5.22
2023-03-16T02:39:48.729Z,5.28
2023-03-16T02:42:18.185Z,5.22
2023-03-16T02:44:50.841Z,5.20
2023-03-16T02:47:27.331Z,6.03
2023-03-16T02:49:53.740Z,6.10
2023-03-16T02:52:20.173Z,5.38
2023-03-16T02:54:46.624Z,5.32
2023-03-16T02:57:13.022Z,5.18
2023-03-16T02:59:39.547Z,4.97
2023-03-16T03:02:05.972Z,5.10
2023-03-16T03:04:33.025Z,5.55
2023-03-16T03:07:04.559Z,5.45
2023-03-16T03:09:34.900Z,5.00
2023-03-16T03:12:01.426Z,5.50
2023-03-16T03:14:28.521Z,5.40
2023-03-16T03:16:55.106Z,5.68
2023-03-16T03:19:23.094Z,5.25
2023-03-16T03:21:50.333Z,5.15
2023-03-16T03:24:16.766Z,5.30
2023-03-16T03:26:44.896Z,5.35
2023-03-16T03:29:11.453Z,6.15
2023-03-16T03:31:37.810Z,5.80
2023-03-16T03:34:06.590Z,5.18
2023-03-16T03:36:34.261Z,5.55
2023-03-16T03:39:05.159Z,5.15
2023-03-16T03:41:32.871Z,5.22
2023-03-16T03:44:00.517Z,5.35
2023-03-16T03:46:27.205Z,5.22
2023-03-16T03:48:53.633Z,6.55
2023-03-16T03:51:20.026Z,6.80
2023-03-16T03:53:46.547Z,5.55
2023-03-16T03:56:13.042Z,5.72
2023-03-16T03:58:39.423Z,6.32
2023-03-16T04:01:05.924Z,6.35
2023-03-16T04:03:32.368Z,5.40
2023-03-16T04:05:58.799Z,6.38
2023-03-16T04:08:25.268Z,5.35
2023-03-16T04:10:51.694Z,5.93
2023-03-16T04:13:18.066Z,5.93
2023-03-16T04:15:46.776Z,5.60
2023-03-16T04:18:13.150Z,6.05
2023-03-16T04:20:39.652Z,6.25
2023-03-16T04:23:06.068Z,6.20
2023-03-16T04:25:32.453Z,6.20
2023-03-16T04:27:58.830Z,6.13
2023-03-16T04:30:25.225Z,5.93
2023-03-16T04:32:52.432Z,6.18
2023-03-16T04:35:18.972Z,6.00
2023-03-16T04:37:47.602Z,6.38
2023-03-16T04:40:17.346Z,6.25
2023-03-16T04:42:45.826Z,6.22
2023-03-16T04:45:12.839Z,6.75
2023-03-16T04:47:39.507Z,5.97
2023-03-16T04:50:06.829Z,5.78
2023-03-16T04:52:33.503Z,5.85
2023-03-16T04:54:59.880Z,5.60
2023-03-16T04:57:26.303Z,5.32
2023-03-16T04:59:52.798Z,5.97
2023-03-16T05:02:20.000Z,5.50
2023-03-16T05:04:46.686Z,5.57
2023-03-16T05:07:13.016Z,5.97
2023-03-16T05:09:39.405Z,5.70
2023-03-16T05:12:08.747Z,5.72
2023-03-16T05:14:36.364Z,5.82
2023-03-16T05:17:06.576Z,5.32
2023-03-16T05:19:33.596Z,5.60
2023-03-16T05:21:59.921Z,5.28
2023-03-16T05:24:29.146Z,5.03
2023-03-16T05:26:55.513Z,5.57
2023-03-16T05:29:21.930Z,5.50
2023-03-16T05:31:48.335Z,5.25
2023-03-16T05:34:15.356Z,5.57
2023-03-16T05:36:41.995Z,5.57
2023-03-16T05:39:08.670Z,5.50
2023-03-16T05:41:35.747Z,5.68
2023-03-16T05:44:04.254Z,6.07
2023-03-16T05:46:30.657Z,5.88
2023-03-16T05:48:57.352Z,5.93
2023-03-16T05:51:26.255Z,6.32
2023-03-16T05:53:56.548Z,5.57
2023-03-16T05:56:28.402Z,5.82
2023-03-16T05:58:55.822Z,6.00
2023-03-16T06:01:23.284Z,5.75
2023-03-16T06:03:52.278Z,5.93
2023-03-16T06:06:20.490Z,6.55
2023-03-16T06:08:47.404Z,6.30
2023-03-16T06:11:13.847Z,6.25
2023-03-16T06:13:40.491Z,5.60
2023-03-16T06:16:07.762Z,6.07
2023-03-16T06:18:34.609Z,6.43
2023-03-16T06:21:00.978Z,6.13
2023-03-16T06:23:27.451Z,5.80
2023-03-16T06:25:55.105Z,6.30
2023-03-16T06:28:22.747Z,5.93
2023-03-16T06:30:49.111Z,6.00
2023-03-16T06:33:15.507Z,6.15
2023-03-16T06:35:41.956Z,5.75
2023-03-16T06:38:08.312Z,5.72
2023-03-16T06:40:34.663Z,6.32
2023-03-16T06:43:02.020Z,6.00
2023-03-16T06:45:28.366Z,5.78
2023-03-16T06:47:56.509Z,6.05
2023-03-16T06:50:22.998Z,5.90
2023-03-16T06:52:49.318Z,5.80
2023-03-16T06:55:15.797Z,6.47
2023-03-16T06:57:42.209Z,6.32
2023-03-16T07:00:15.303Z,6.32
2023-03-16T07:02:43.544Z,6.03
2023-03-16T07:05:13.849Z,6.70
2023-03-16T07:07:42.651Z,6.43
2023-03-16T07:10:14.204Z,6.57
2023-03-16T07:12:42.144Z,6.75
2023-03-16T07:15:09.701Z,6.93
2023-03-16T07:17:36.647Z,6.93
2023-03-16T07:20:05.499Z,6.85
2023-03-16T07:22:32.483Z,7.05
2023-03-16T07:24:59.314Z,6.78
2023-03-16T07:27:25.687Z,7.00
2023-03-16T07:29:52.281Z,6.38
2023-03-16T07:32:19.219Z,6.25
2023-03-16T07:34:45.588Z,6.40
2023-03-16T07:37:11.975Z,6.35
2023-03-16T07:39:38.624Z,6.22
2023-03-16T07:42:05.083Z,7.65
2023-03-16T07:44:31.852Z,7.05
2023-03-16T07:46:58.194Z,6.95
2023-03-16T07:49:24.574Z,6.95
2023-03-16T07:51:51.371Z,7.35
2023-03-16T07:54:17.715Z,7.07
2023-03-16T07:56:50.062Z,7.00
2023-03-16T07:59:16.640Z,6.57
2023-03-16T08:01:43.102Z,6.18
2023-03-16T08:04:12.249Z,6.85
2023-03-16T08:06:38.833Z,6.50
2023-03-16T08:09:05.825Z,6.60
2023-03-16T08:11:32.197Z,6.85
2023-03-16T08:13:58.818Z,6.72
2023-03-16T08:16:26.497Z,7.40
2023-03-16T08:18:56.013Z,7.32
2023-03-16T08:21:22.546Z,7.32
2023-03-16T08:23:50.290Z,6.22
2023-03-16T08:26:19.594Z,6.65
2023-03-16T08:28:46.901Z,7.47
2023-03-16T08:31:15.313Z,7.07
2023-03-16T08:33:46.833Z,6.88
2023-03-16T08:36:15.853Z,7.30
2023-03-16T08:39:03.755Z,7.65
2023-03-16T08:41:34.596Z,7.75
2023-03-16T08:44:01.907Z,8.95
2023-03-16T08:46:28.596Z,8.80
2023-03-16T08:48:55.885Z,7.72
2023-03-16T08:51:22.453Z,7.57
2023-03-16T08:53:48.865Z,7.30
2023-03-16T08:56:15.287Z,7.85
2023-03-16T08:58:46.020Z,7.13
2023-03-16T09:01:15.180Z,7.10
2023-03-16T09:03:42.282Z,7.07
2023-03-16T09:06:10.538Z,7.28
2023-03-16T09:08:39.064Z,6.93
2023-03-16T09:11:12.555Z,6.85
2023-03-16T09:13:40.167Z,6.93
2023-03-16T09:16:08.078Z,6.68
2023-03-16T09:18:35.231Z,6.22
2023-03-16T09:21:07.040Z,6.20
2023-03-16T09:23:35.047Z,6.32
2023-03-16T09:26:02.971Z,5.82
2023-03-16T09:28:31.170Z,6.68
2023-03-16T09:30:58.853Z,6.65
2023-03-16T09:33:26.120Z,6.20
2023-03-16T09:35:52.857Z,6.40
2023-03-16T09:38:19.589Z,6.20
2023-03-16T09:40:48.875Z,6.20
2023-03-16T09:43:40.127Z,6.45
2023-03-16T09:46:35.015Z,6.15
2023-03-16T09:49:03.531Z,5.75
2023-03-16T09:51:44.864Z,6.18
2023-03-16T09:54:27.576Z,6.30
2023-03-16T09:56:55.523Z,5.95
2023-03-16T09:59:22.589Z,5.60
2023-03-16T10:02:10.827Z,6.45
2023-03-16T10:04:53.083Z,6.40
2023-03-16T10:07:38.099Z,5.97
2023-03-16T10:10:47.912Z,6.53
2023-03-16T10:13:32.883Z,6.30
2023-03-16T10:16:05.270Z,6.60
2023-03-16T10:18:38.733Z,7.75
2023-03-16T10:21:10.728Z,6.57
2023-03-16T10:23:37.113Z,6.88
2023-03-16T10:26:12.915Z,6.10
2023-03-16T10:28:39.551Z,5.75
2023-03-16T10:31:06.106Z,6.18
2023-03-16T10:33:36.405Z,7.03
2023-03-16T10:36:32.116Z,6.22
2023-03-16T10:39:01.527Z,5.70
2023-03-16T10:41:32.896Z,7.90
2023-03-16T10:44:11.893Z,7.18
2023-03-16T10:46:50.136Z,5.68
2023-03-16T10:49:28.221Z,5.28
2023-03-16T10:52:00.097Z,6.95
2023-03-16T10:54:34.667Z,5.97
2023-03-16T10:57:31.237Z,4.82
2023-03-16T11:00:15.156Z,4.38
2023-03-16T11:02:42.337Z,5.13
2023-03-16T11:05:21.275Z,5.18
2023-03-16T11:07:57.604Z,5.88
2023-03-16T11:10:40.550Z,4.70
2023-03-16T11:13:20.927Z,4.35
2023-03-16T11:15:58.781Z,5.03
2023-03-16T11:18:54.052Z,4.45
2023-03-16T11:21:38.503Z,4.32
2023-03-16T11:24:11.027Z,4.38
2023-03-16T11:26:40.667Z,4.40
2023-03-16T11:29:18.768Z,4.20
2023-03-16T11:32:00.264Z,4.75
2023-03-16T11:34:30.485Z,4.68
2023-03-16T11:37:14.790Z,4.95
2023-03-16T11:39:59.058Z,4.28
2023-03-16T11:42:39.530Z,4.35
2023-03-16T11:45:18.913Z,3.85
2023-03-16T11:48:14.733Z,3.90
2023-03-16T11:51:06.250Z,3.95
2023-03-16T11:53:44.850Z,4.43
2023-03-16T11:56:24.067Z,4.60
2023-03-16T11:59:28.042Z,4.25
2023-03-16T12:02:10.019Z,4.22
2023-03-16T12:04:56.612Z,4.38
2023-03-16T12:07:42.832Z,5.20
2023-03-16T12:10:18.657Z,4.57
2023-03-16T12:13:30.782Z,4.32
2023-03-16T12:16:05.608Z,4.55
2023-03-16T12:18:34.698Z,3.80
2023-03-16T12:21:14.885Z,4.38
2023-03-16T12:23:52.219Z,4.45
2023-03-16T12:26:22.275Z,4.28
2023-03-16T12:28:50.637Z,4.18
2023-03-16T12:31:22.538Z,4.53
2023-03-16T12:34:13.133Z,4.65
2023-03-16T12:36:55.861Z,4.60
2023-03-16T12:40:10.041Z,3.90
2023-03-16T12:42:50.452Z,4.47
2023-03-16T12:45:32.246Z,4.43
2023-03-16T12:48:30.372Z,4.90
2023-03-16T12:50:59.738Z,5.00
2023-03-16T12:53:43.408Z,4.85
2023-03-16T12:56:13.443Z,6.05
2023-03-16T12:58:50.790Z,5.07
2023-03-16T13:01:20.634Z,4.88
2023-03-16T13:03:50.341Z,5.78
2023-03-16T13:06:23.944Z,3.38
2023-03-16T13:08:57.682Z,4.10
2023-03-16T13:11:24.263Z,3.35
2023-03-16T13:14:01.788Z,3.63
2023-03-16T13:16:31.048Z,3.65
2023-03-16T13:18:57.954Z,3.80
2023-03-16T13:21:40.059Z,3.90
2023-03-16T13:24:18.681Z,3.60
2023-03-16T13:26:48.695Z,3.78
2023-03-16T13:29:23.761Z,3.60
2023-03-16T13:31:52.582Z,3.42
2023-03-16T13:34:26.650Z,3.20
2023-03-16T13:36:59.359Z,3.50
2023-03-16T13:39:29.742Z,3.40
2023-03-16T13:42:04.792Z,3.35
2023-03-16T13:44:32.390Z,3.20
2023-03-16T13:47:04.391Z,3.30
2023-03-16T13:49:30.809Z,3.28
2023-03-16T13:51:57.654Z,3.53
2023-03-16T13:54:29.720Z,3.55
2023-03-16T13:56:59.080Z,3.20
2023-03-16T13:59:26.287Z,3.50
2023-03-16T14:02:01.902Z,3.42
2023-03-16T14:04:31.388Z,3.50
2023-03-16T14:07:03.560Z,3.70
2023-03-16T14:09:34.461Z,4.20
2023-03-16T14:12:01.499Z,4.00
2023-03-16T14:14:30.749Z,4.20
2023-03-16T14:17:03.862Z,4.00
2023-03-16T14:19:36.025Z,3.88
2023-03-16T14:22:06.548Z,3.60
2023-03-16T14:24:34.905Z,3.85
2023-03-16T14:27:22.345Z,4.00
2023-03-16T14:30:00.668Z,3.80
2023-03-16T14:32:31.251Z,3.60
2023-03-16T14:35:15.511Z,3.40
2023-03-16T14:37:44.122Z,3.33
2023-03-16T14:40:25.145Z,3.55
2023-03-16T14:42:54.694Z,3.35
2023-03-16T14:45:36.055Z,3.40
2023-03-16T14:48:16.862Z,3.60
2023-03-16T14:50:46.507Z,3.70
2023-03-16T14:53:13.126Z,3.95
2023-03-16T14:55:39.814Z,4.35
2023-03-16T14:58:06.832Z,3.90
2023-03-16T15:00:42.771Z,3.97
2023-03-16T15:03:17.414Z,4.18
2023-03-16T15:05:48.521Z,3.60
2023-03-16T15:08:27.210Z,4.20
2023-03-16T15:10:55.740Z,4.53
2023-03-16T15:13:42.296Z,4.03
2023-03-16T15:16:16.582Z,4.82
2023-03-16T15:18:45.305Z,3.90
2023-03-16T15:21:18.349Z,4.80
2023-03-16T15:23:45.217Z,4.10
2023-03-16T15:26:14.433Z,3.65
2023-03-16T15:28:40.929Z,3.63
2023-03-16T15:31:07.830Z,3.45
2023-03-16T15:33:34.591Z,3.70
2023-03-16T15:36:10.755Z,3.92
2023-03-16T15:38:40.292Z,3.60
2023-03-16T15:41:11.383Z,3.50
2023-03-16T15:43:38.230Z,3.50
2023-03-16T15:46:07.397Z,3.70
2023-03-16T15:48:34.211Z,4.10
2023-03-16T15:51:22.384Z,3.80
2023-03-16T15:53:52.805Z,4.43
2023-03-16T15:56:29.136Z,4.00
2023-03-16T15:59:03.161Z,3.67
2023-03-16T16:01:34.898Z,3.85
2023-03-16T16:04:01.486Z,4.50
2023-03-16T16:06:28.702Z,3.90
2023-03-16T16:08:55.095Z,4.00
2023-03-16T16:11:27.139Z,4.20
2023-03-16T16:14:00.552Z,3.95
2023-03-16T16:16:32.222Z,4.10
2023-03-16T16:18:59.871Z,3.95
2023-03-16T16:21:30.841Z,4.30
2023-03-16T16:24:07.752Z,4.65
2023-03-16T16:26:51.925Z,5.00
2023-03-16T16:29:23.297Z,5.18
2023-03-16T16:31:53.289Z,5.03
2023-03-16T16:34:24.775Z,5.47
2023-03-16T16:36:51.801Z,5.20
2023-03-16T16:39:18.322Z,5.25
2023-03-16T16:41:46.133Z,5.43
2023-03-16T16:44:28.677Z,5.70
2023-03-16T16:46:55.516Z,5.25
2023-03-16T16:49:28.209Z,5.40
2023-03-16T16:52:01.721Z,5.13
2023-03-16T16:54:30.403Z,5.60
2023-03-16T16:57:03.696Z,5.43
2023-03-16T16:59:36.894Z,4.78
2023-03-16T17:02:23.584Z,6.35
2023-03-16T17:04:53.354Z,5.50
2023-03-16T17:07:19.877Z,5.55
2023-03-16T17:09:49.374Z,5.65
2023-03-16T17:12:22.840Z,4.70
2023-03-16T17:14:50.560Z,5.13
2023-03-16T17:17:18.584Z,5.25
2023-03-16T17:19:46.882Z,7.50
2023-03-16T17:22:31.449Z,5.60
2023-03-16T17:24:58.532Z,5.32
2023-03-16T17:27:29.385Z,5.20
2023-03-16T17:29:57.562Z,4.45
2023-03-16T17:32:24.608Z,5.43
2023-03-16T17:34:52.149Z,5.03
2023-03-16T17:37:21.012Z,5.57
2023-03-16T17:39:47.918Z,5.20
2023-03-16T17:42:18.362Z,5.75
2023-03-16T17:44:47.232Z,5.55
2023-03-16T17:47:16.153Z,4.82
2023-03-16T17:49:44.662Z,5.00
2023-03-16T17:52:18.229Z,4.85
2023-03-16T17:54:46.842Z,5.18
2023-03-16T17:57:34.095Z,4.18
2023-03-16T18:00:04.061Z,4.18
2023-03-16T18:02:43.555Z,4.40
2023-03-16T18:05:35.546Z,4.20
2023-03-16T18:08:20.458Z,4.43
2023-03-16T18:10:49.864Z,4.10
2023-03-16T18:13:41.044Z,4.00
2023-03-16T18:16:08.323Z,4.40
2023-03-16T18:18:39.310Z,4.63
2023-03-16T18:21:07.455Z,4.57
2023-03-16T18:23:35.867Z,4.97
2023-03-16T18:26:09.716Z,5.10
2023-03-16T18:28:41.511Z,5.20
2023-03-16T18:31:19.235Z,5.25
2023-03-16T18:33:46.773Z,4.88
2023-03-16T18:36:18.006Z,5.18
2023-03-16T18:38:48.303Z,5.25
2023-03-16T18:41:16.056Z,4.80
2023-03-16T18:43:43.772Z,5.20
2023-03-16T18:46:36.414Z,4.90
2023-03-16T18:49:35.041Z,4.95
2023-03-16T18:52:14.731Z,5.28
2023-03-16T18:54:45.361Z,5.10
2023-03-16T18:57:22.190Z,5.45
2023-03-16T18:59:51.878Z,5.63
2023-03-16T19:02:40.975Z,5.80
2023-03-16T19:05:18.553Z,6.03
2023-03-16T19:07:51.378Z,6.47
2023-03-16T19:10:26.433Z,6.82
2023-03-16T19:12:54.029Z,6.22
2023-03-16T19:15:30.452Z,7.20
2023-03-16T19:17:58.107Z,6.82
2023-03-16T19:20:27.630Z,6.93
2023-03-16T19:23:03.009Z,6.35
2023-03-16T19:25:33.935Z,6.60
2023-03-16T19:28:01.167Z,6.03
2023-03-16T19:30:30.283Z,6.30
2023-03-16T19:32:57.783Z,6.43
2023-03-16T19:35:40.131Z,6.78
2023-03-16T19:38:11.304Z,5.45
2023-03-16T19:40:37.791Z,6.50
2023-03-16T19:43:06.399Z,6.43
2023-03-16T19:45:34.045Z,5.70
2023-03-16T19:48:00.981Z,6.10
2023-03-16T19:50:28.701Z,6.47
2023-03-16T19:52:58.748Z,7.03
2023-03-16T19:55:31.760Z,6.15
2023-03-16T19:58:01.916Z,6.50
2023-03-16T20:00:30.126Z,6.85
2023-03-16T20:02:57.411Z,6.20
2023-03-16T20:05:29.774Z,6.53
2023-03-16T20:08:00.867Z,6.35
2023-03-16T20:10:30.075Z,6.30
2023-03-16T20:12:58.740Z,7.13
2023-03-16T20:15:31.425Z,6.60
2023-03-16T20:17:58.649Z,6.72
2023-03-16T20:20:28.291Z,6.30
2023-03-16T20:22:58.392Z,6.85
2023-03-16T20:25:28.865Z,7.65
2023-03-16T20:27:59.466Z,6.28
2023-03-16T20:30:46.758Z,7.40
2023-03-16T20:33:18.573Z,7.22
2023-03-16T20:35:46.235Z,7.70
2023-03-16T20:38:14.134Z,7.28
2023-03-16T20:40:42.912Z,7.43
2023-03-16T20:43:27.642Z,8.32
2023-03-16T20:45:56.612Z,8.20
2023-03-16T20:48:27.328Z,8.32
2023-03-16T20:50:57.057Z,8.30
2023-03-16T20:53:24.151Z,8.50
2023-03-16T20:55:52.456Z,8.20
2023-03-16T20:58:25.829Z,8.25
2023-03-16T21:00:57.578Z,8.10
2023-03-16T21:03:28.150Z,7.70
2023-03-16T21:05:57.802Z,8.23
2023-03-16T21:08:26.426Z,8.20
2023-03-16T21:10:54.975Z,8.10
2023-03-16T21:13:32.593Z,8.93
2023-03-16T21:16:01.689Z,7.60
2023-03-16T21:18:28.593Z,7.68
2023-03-16T21:21:03.294Z,7.25
2023-03-16T21:23:29.868Z,6.85
2023-03-16T21:26:00.598Z,7.00
2023-03-16T21:28:31.519Z,7.10
2023-03-16T21:30:58.658Z,6.85
2023-03-16T21:33:37.821Z,6.82
2023-03-16T21:36:12.454Z,6.93
2023-03-16T21:38:38.862Z,6.22
2023-03-16T21:41:08.144Z,6.55
2023-03-16T21:43:34.791Z,6.82
2023-03-16T21:46:01.294Z,5.95
2023-03-16T21:48:35.906Z,7.22
2023-03-16T21:51:02.938Z,6.68
2023-03-16T21:53:33.288Z,6.22
2023-03-16T21:56:00.152Z,6.40
2023-03-16T21:58:27.403Z,6.40
2023-03-16T22:00:55.326Z,6.00
2023-03-16T22:03:23.955Z,6.43
2023-03-16T22:05:51.162Z,6.50
2023-03-16T22:08:29.892Z,6.07
2023-03-16T22:10:57.233Z,6.20
2023-03-16T22:13:26.545Z,7.10
2023-03-16T22:15:56.066Z,6.95
2023-03-16T22:18:28.406Z,6.50
2023-03-16T22:21:00.056Z,6.63
2023-03-16T22:23:34.647Z,6.07
2023-03-16T22:26:02.966Z,6.05
2023-03-16T22:28:30.931Z,6.38
2023-03-16T22:31:01.717Z,6.18
2023-03-16T22:33:30.979Z,6.20
2023-03-16T22:36:06.484Z,6.65
2023-03-16T22:38:32.934Z,6.50
2023-03-16T22:40:59.602Z,5.68
2023-03-16T22:43:32.123Z,5.97
2023-03-16T22:46:00.363Z,5.97
2023-03-16T22:48:29.872Z,6.15
2023-03-16T22:51:00.191Z,5.65
2023-03-16T22:53:36.972Z,6.07
2023-03-16T22:56:07.023Z,6.25
2023-03-16T22:58:40.796Z,5.55
2023-03-16T23:01:17.789Z,5.63
2023-03-16T23:03:46.375Z,6.40
2023-03-16T23:06:18.929Z,6.30
2023-03-16T23:08:45.453Z,6.47
2023-03-16T23:11:16.606Z,5.97
2023-03-16T23:13:43.829Z,6.20
2023-03-16T23:16:21.091Z,5.50
2023-03-16T23:18:48.892Z,6.13
2023-03-16T23:21:17.625Z,6.03
2023-03-16T23:23:53.951Z,5.85
2023-03-16T23:26:28.936Z,6.10
2023-03-16T23:28:56.448Z,5.68
2023-03-16T23:31:25.145Z,5.95
2023-03-16T23:33:51.566Z,6.20
2023-03-16T23:36:21.330Z,6.03
2023-03-16T23:38:51.495Z,5.65
2023-03-16T23:41:23.128Z,5.72
2023-03-16T23:43:50.631Z,5.80
2023-03-16T23:46:19.685Z,6.30
2023-03-16T23:48:48.704Z,6.38
2023-03-16T23:51:27.236Z,7.05
2023-03-16T23:53:53.830Z,7.75
2023-03-16T23:56:22.040Z,7.30
2023-03-16T23:58:48.847Z,7.18
